createdAt,value
2019-02-14T00:00:58.637Z,19.17
2019-02-14T00:03:28.474Z,15.30
2019-02-14T00:05:57.653Z,16.00
2019-02-14T00:08:27.131Z,17.23
2019-02-14T00:10:56.302Z,16.40
2019-02-14T00:13:25.447Z,15.60
2019-02-14T00:15:54.749Z,13.47
2019-02-14T00:18:24.172Z,16.43
2019-02-14T00:20:53.459Z,18.27
2019-02-14T00:23:22.633Z,16.40
2019-02-14T00:25:51.989Z,13.93
2019-02-14T00:28:21.737Z,17.97
2019-02-14T00:30:50.903Z,17.23
2019-02-14T00:33:20.834Z,17.80
2019-02-14T00:35:50.247Z,17.23
2019-02-14T00:38:19.525Z,14.73
2019-02-14T00:40:48.680Z,16.33
2019-02-14T00:43:17.842Z,16.50
2019-02-14T00:45:47.369Z,17.03
2019-02-14T00:48:16.632Z,14.03
2019-02-14T00:50:45.961Z,14.43
2019-02-14T00:53:15.214Z,15.37
2019-02-14T00:55:44.819Z,12.77
2019-02-14T00:58:14.215Z,17.70
2019-02-14T01:00:43.725Z,15.60
2019-02-14T01:03:12.969Z,14.07
2019-02-14T01:05:42.382Z,17.87
2019-02-14T01:08:11.685Z,14.90
2019-02-14T01:10:40.901Z,14.10
2019-02-14T01:13:10.253Z,15.87
2019-02-14T01:15:39.729Z,17.83
2019-02-14T01:18:09.664Z,15.77
2019-02-14T01:20:38.921Z,16.00
2019-02-14T01:23:08.417Z,14.00
2019-02-14T01:25:37.737Z,15.10
2019-02-14T01:28:07.241Z,13.40
2019-02-14T01:30:36.488Z,17.93
2019-02-14T01:33:06.099Z,16.60
2019-02-14T01:35:41.785Z,15.03
2019-02-14T01:38:06.567Z,15.53
2019-02-14T01:40:35.877Z,14.77
2019-02-14T01:43:05.149Z,17.57
2019-02-14T01:45:34.330Z,16.67
2019-02-14T01:48:03.602Z,17.37
2019-02-14T01:50:32.871Z,17.83
2019-02-14T01:53:02.195Z,15.17
2019-02-14T01:55:32.593Z,16.03
2019-02-14T01:58:02.406Z,16.97
2019-02-14T02:00:31.785Z,15.33
2019-02-14T02:03:00.992Z,17.33
2019-02-14T02:05:30.277Z,15.70
2019-02-14T02:07:59.561Z,14.77
2019-02-14T02:10:29.037Z,17.33
2019-02-14T02:12:58.236Z,13.50
2019-02-14T02:15:27.547Z,18.23
2019-02-14T02:17:59.939Z,19.50
2019-02-14T02:20:33.369Z,15.67
2019-02-14T02:23:00.765Z,15.27
2019-02-14T02:25:30.267Z,14.27
2019-02-14T02:27:59.665Z,16.50
2019-02-14T02:30:28.903Z,13.50
2019-02-14T02:32:58.262Z,15.77
2019-02-14T02:35:27.601Z,15.90
2019-02-14T02:37:56.966Z,18.57
2019-02-14T02:40:26.222Z,14.43
2019-02-14T02:42:55.574Z,21.33
2019-02-14T02:45:25.068Z,14.37
2019-02-14T02:47:54.681Z,14.77
2019-02-14T02:50:24.002Z,14.33
2019-02-14T02:52:53.367Z,16.17
2019-02-14T02:55:22.736Z,17.20
2019-02-14T02:57:52.182Z,14.00
2019-02-14T03:00:21.514Z,20.63
2019-02-14T03:02:50.764Z,16.50
2019-02-14T03:05:20.421Z,17.13
2019-02-14T03:07:49.877Z,16.27
2019-02-14T03:10:19.170Z,15.20
2019-02-14T03:12:48.413Z,13.40
2019-02-14T03:15:17.709Z,14.77
2019-02-14T03:17:47.106Z,15.43
2019-02-14T03:20:16.508Z,17.20
2019-02-14T03:22:46.098Z,16.10
2019-02-14T03:25:16.942Z,15.47
2019-02-14T03:27:46.223Z,15.90
2019-02-14T03:30:15.845Z,15.80
2019-02-14T03:32:45.215Z,15.07
2019-02-14T03:35:14.685Z,15.37
2019-02-14T03:37:44.320Z,17.30
2019-02-14T03:40:13.737Z,18.00
2019-02-14T03:42:43.030Z,15.40
2019-02-14T03:45:15.387Z,14.57
2019-02-14T03:47:44.654Z,14.13
2019-02-14T03:50:13.992Z,14.57
2019-02-14T03:52:43.637Z,14.50
2019-02-14T03:55:13.104Z,14.93
2019-02-14T03:57:42.677Z,15.63
2019-02-14T04:00:13.743Z,15.97
2019-02-14T04:02:43.000Z,16.63
2019-02-14T04:05:12.471Z,13.47
2019-02-14T04:07:45.223Z,20.53
2019-02-14T04:10:14.398Z,15.93
2019-02-14T04:12:43.699Z,16.93
2019-02-14T04:15:14.885Z,16.77
2019-02-14T04:17:44.272Z,17.23
2019-02-14T04:20:14.005Z,14.43
2019-02-14T04:22:43.242Z,14.67
2019-02-14T04:25:12.732Z,17.13
2019-02-14T04:27:42.545Z,15.93
2019-02-14T04:30:12.108Z,17.53
2019-02-14T04:32:41.549Z,15.87
2019-02-14T04:35:11.129Z,18.87
2019-02-14T04:37:40.474Z,17.40
2019-02-14T04:40:11.209Z,15.83
2019-02-14T04:42:40.582Z,16.87
2019-02-14T04:45:09.792Z,15.60
2019-02-14T04:47:39.209Z,15.43
2019-02-14T04:50:08.504Z,14.77
2019-02-14T04:52:37.639Z,15.63
2019-02-14T04:55:07.194Z,17.83
2019-02-14T04:57:36.351Z,16.40
2019-02-14T05:00:06.174Z,17.60
2019-02-14T05:02:35.429Z,17.03
2019-02-14T05:05:04.936Z,15.03
2019-02-14T05:07:34.150Z,16.80
2019-02-14T05:10:04.028Z,15.93
2019-02-14T05:12:33.610Z,17.67
2019-02-14T05:15:03.129Z,14.73
2019-02-14T05:17:33.876Z,15.33
2019-02-14T05:20:03.494Z,18.23
2019-02-14T05:22:33.074Z,18.20
2019-02-14T05:25:02.322Z,17.07
2019-02-14T05:27:31.581Z,15.77
2019-02-14T05:30:01.402Z,15.93
2019-02-14T05:32:30.839Z,14.40
2019-02-14T05:35:00.250Z,16.50
2019-02-14T05:37:29.743Z,17.37
2019-02-14T05:39:59.236Z,13.83
2019-02-14T05:42:28.517Z,15.33
2019-02-14T05:44:58.161Z,15.00
2019-02-14T05:47:27.372Z,14.87
2019-02-14T05:49:56.612Z,14.67
2019-02-14T05:52:26.107Z,15.13
2019-02-14T05:54:55.315Z,13.43
2019-02-14T05:57:25.117Z,17.27
2019-02-14T05:59:54.679Z,11.93
2019-02-14T06:02:24.033Z,15.63
2019-02-14T06:04:53.296Z,17.37
2019-02-14T06:07:22.731Z,15.37
2019-02-14T06:09:52.202Z,13.13
2019-02-14T06:12:21.390Z,18.27
2019-02-14T06:14:50.810Z,12.97
2019-02-14T06:17:20.046Z,15.70
2019-02-14T06:19:49.304Z,14.23
2019-02-14T06:22:18.613Z,13.63
2019-02-14T06:24:47.831Z,14.03
2019-02-14T06:27:17.364Z,18.07
2019-02-14T06:29:46.593Z,20.37
2019-02-14T06:32:16.418Z,12.80
2019-02-14T06:34:45.691Z,15.87
2019-02-14T06:37:15.002Z,12.90
2019-02-14T06:39:44.268Z,16.97
2019-02-14T06:42:13.521Z,17.13
2019-02-14T06:44:42.696Z,12.70
2019-02-14T06:47:11.993Z,12.63
2019-02-14T06:49:41.691Z,12.20
2019-02-14T06:52:10.975Z,17.47
2019-02-14T06:54:40.181Z,17.00
2019-02-14T06:57:09.666Z,17.63
2019-02-14T06:59:40.454Z,16.93
2019-02-14T07:02:09.845Z,17.60
2019-02-14T07:04:39.355Z,18.37
2019-02-14T07:07:08.677Z,16.60
2019-02-14T07:09:37.954Z,15.47
2019-02-14T07:14:36.749Z,14.93
2019-02-14T07:17:06.074Z,14.90
2019-02-14T07:19:35.875Z,14.60
2019-02-14T07:22:05.152Z,15.00
2019-02-14T07:24:34.462Z,15.10
2019-02-14T07:27:04.042Z,16.50
2019-02-14T07:29:33.321Z,19.07
2019-02-14T07:32:03.007Z,17.93
2019-02-14T07:34:32.842Z,18.27
2019-02-14T07:37:02.233Z,16.20
2019-02-14T07:39:31.611Z,17.03
2019-02-14T07:42:01.249Z,17.73
2019-02-14T07:44:30.649Z,21.33
2019-02-14T07:47:00.111Z,17.50
2019-02-14T07:49:29.482Z,18.37
2019-02-14T07:51:58.732Z,18.30
2019-02-14T07:54:27.993Z,18.77
2019-02-14T07:56:57.293Z,20.07
2019-02-14T07:59:26.763Z,16.97
2019-02-14T08:01:56.418Z,19.50
2019-02-14T08:04:25.654Z,17.57
2019-02-14T08:06:54.956Z,20.33
2019-02-14T08:09:24.299Z,19.03
2019-02-14T08:11:53.615Z,16.57
2019-02-14T08:14:23.205Z,19.73
2019-02-14T08:16:52.462Z,17.30
2019-02-14T08:19:21.739Z,17.93
2019-02-14T08:21:51.397Z,16.43
2019-02-14T08:24:20.870Z,17.30
2019-02-14T08:26:50.082Z,16.73
2019-02-14T08:29:19.344Z,15.27
2019-02-14T08:31:48.879Z,21.93
2019-02-14T08:34:18.057Z,17.07
2019-02-14T08:36:47.613Z,15.20
2019-02-14T08:39:16.774Z,18.87
2019-02-14T08:41:46.026Z,18.73
2019-02-14T08:44:15.335Z,19.07
2019-02-14T08:46:44.518Z,17.53
2019-02-14T08:49:14.139Z,22.40
2019-02-14T08:51:43.424Z,24.73
2019-02-14T08:54:13.469Z,21.90
2019-02-14T08:56:42.957Z,22.17
2019-02-14T08:59:12.297Z,27.47
2019-02-14T09:01:41.993Z,25.97
2019-02-14T09:04:11.519Z,32.23
2019-02-14T09:06:41.594Z,33.37
2019-02-14T09:09:10.989Z,24.13
2019-02-14T09:11:40.277Z,26.27
2019-02-14T09:14:09.590Z,24.83
2019-02-14T09:16:40.051Z,24.00
2019-02-14T09:19:09.354Z,26.03
2019-02-14T09:21:38.530Z,22.53
2019-02-14T09:24:08.085Z,22.70
2019-02-14T09:26:37.917Z,20.77
2019-02-14T09:29:07.354Z,20.80
2019-02-14T09:31:36.716Z,21.63
2019-02-14T09:34:06.055Z,17.70
2019-02-14T09:36:35.303Z,22.23
2019-02-14T09:39:05.501Z,40.70
2019-02-14T09:41:34.763Z,18.23
2019-02-14T09:44:04.152Z,17.57
2019-02-14T09:46:33.672Z,18.07
2019-02-14T09:49:03.077Z,20.53
2019-02-14T09:51:32.437Z,21.00
2019-02-14T09:54:02.074Z,18.77
2019-02-14T09:56:31.339Z,19.23
2019-02-14T09:59:00.866Z,20.40
2019-02-14T10:01:30.183Z,25.40
2019-02-14T10:03:59.499Z,21.20
2019-02-14T10:06:36.360Z,25.63
2019-02-14T10:09:00.906Z,20.83
2019-02-14T10:11:30.554Z,24.07
2019-02-14T10:14:00.049Z,22.40
2019-02-14T10:16:30.293Z,20.10
2019-02-14T10:18:59.531Z,22.43
2019-02-14T10:21:28.837Z,25.40
2019-02-14T10:23:58.762Z,20.60
2019-02-14T10:26:28.006Z,25.33
2019-02-14T10:28:57.478Z,25.40
2019-02-14T10:31:26.746Z,20.60
2019-02-14T10:33:55.967Z,23.10
2019-02-14T10:36:25.543Z,16.80
2019-02-14T10:38:54.709Z,29.93
2019-02-14T10:41:23.929Z,17.93
2019-02-14T10:43:53.654Z,21.90
2019-02-14T10:46:23.123Z,35.10
2019-02-14T10:48:53.472Z,19.37
2019-02-14T10:51:22.896Z,18.63
2019-02-14T10:53:52.425Z,19.17
2019-02-14T10:56:22.097Z,26.27
2019-02-14T10:58:51.375Z,17.00
2019-02-14T11:01:20.618Z,19.30
2019-02-14T11:03:49.943Z,21.93
2019-02-14T11:06:19.540Z,23.47
2019-02-14T11:08:48.839Z,21.33
2019-02-14T11:11:18.385Z,22.27
2019-02-14T11:13:47.898Z,21.97
2019-02-14T11:16:17.578Z,23.10
2019-02-14T11:18:46.875Z,19.27
2019-02-14T11:21:16.249Z,18.23
2019-02-14T11:23:45.558Z,21.03
2019-02-14T11:26:14.817Z,16.70
2019-02-14T11:28:44.121Z,19.20
2019-02-14T11:31:14.358Z,18.87
2019-02-14T11:33:43.682Z,21.50
2019-02-14T11:36:12.968Z,23.13
2019-02-14T11:38:42.621Z,21.23
2019-02-14T11:41:12.303Z,21.23
2019-02-14T11:43:42.098Z,42.10
2019-02-14T11:46:11.385Z,17.53
2019-02-14T11:48:40.635Z,37.97
2019-02-14T11:51:09.859Z,18.37
2019-02-14T11:53:39.369Z,16.03
2019-02-14T11:56:13.606Z,19.53
2019-02-14T11:58:43.412Z,19.07
2019-02-14T12:01:12.665Z,22.43
2019-02-14T12:03:42.163Z,27.57
2019-02-14T12:06:17.379Z,19.10
2019-02-14T12:08:52.954Z,25.73
2019-02-14T12:11:14.416Z,16.60
2019-02-14T12:13:43.786Z,22.13
2019-02-14T12:16:13.142Z,17.23
2019-02-14T12:18:42.342Z,22.30
2019-02-14T12:21:11.721Z,20.07
2019-02-14T12:23:40.986Z,20.97
2019-02-14T12:26:10.499Z,17.57
2019-02-14T12:28:39.903Z,18.87
2019-02-14T12:31:09.365Z,20.67
2019-02-14T12:33:38.990Z,24.93
2019-02-14T12:36:08.342Z,17.20
2019-02-14T12:38:37.645Z,18.83
2019-02-14T12:41:06.894Z,19.27
2019-02-14T12:43:36.190Z,15.77
2019-02-14T12:46:05.745Z,22.60
2019-02-14T12:48:35.301Z,22.67
2019-02-14T12:51:04.870Z,16.83
2019-02-14T12:53:34.170Z,18.70
2019-02-14T12:56:04.230Z,17.23
2019-02-14T12:58:33.497Z,18.73
2019-02-14T13:01:02.794Z,20.37
2019-02-14T13:03:33.544Z,27.13
2019-02-14T13:06:03.370Z,35.60
2019-02-14T13:08:32.892Z,28.47
2019-02-14T13:11:02.337Z,23.53
2019-02-14T13:13:32.240Z,23.93
2019-02-14T13:16:01.699Z,21.77
2019-02-14T13:18:31.374Z,24.17
2019-02-14T13:21:00.782Z,26.73
2019-02-14T13:23:30.132Z,18.33
2019-02-14T13:25:59.486Z,18.93
2019-02-14T13:28:28.827Z,18.30
2019-02-14T13:30:58.237Z,19.97
2019-02-14T13:33:27.973Z,17.63
2019-02-14T13:35:57.183Z,18.40
2019-02-14T13:38:26.352Z,20.13
2019-02-14T13:40:55.636Z,20.03
2019-02-14T13:43:25.096Z,20.03
2019-02-14T13:45:54.450Z,25.23
2019-02-14T13:48:24.223Z,35.17
2019-02-14T13:50:53.942Z,20.40
2019-02-14T13:53:24.573Z,25.07
2019-02-14T13:55:54.129Z,19.30
2019-02-14T13:58:23.317Z,31.97
2019-02-14T14:00:52.581Z,19.27
2019-02-14T14:03:22.153Z,22.33
2019-02-14T14:05:51.449Z,28.87
2019-02-14T14:08:20.977Z,20.97
2019-02-14T14:10:50.481Z,18.63
2019-02-14T14:13:19.789Z,23.93
2019-02-14T14:15:48.975Z,21.10
2019-02-14T14:18:18.162Z,19.77
2019-02-14T14:20:47.465Z,48.30
2019-02-14T14:23:17.027Z,81.17
2019-02-14T14:25:46.738Z,32.03
2019-02-14T14:28:16.104Z,21.95
2019-02-14T14:30:45.288Z,97.57
2019-02-14T14:33:14.778Z,47.27
2019-02-14T14:35:43.929Z,32.80
2019-02-14T14:38:13.187Z,33.65
2019-02-14T14:40:42.810Z,30.05
2019-02-14T14:43:34.071Z,31.40
2019-02-14T14:46:11.246Z,25.50
2019-02-14T14:48:42.022Z,19.82
2019-02-14T14:51:11.279Z,30.02
2019-02-14T14:53:41.133Z,39.78
2019-02-14T14:56:10.544Z,30.00
2019-02-14T14:58:39.780Z,17.12
2019-02-14T15:01:09.007Z,20.92
2019-02-14T15:03:38.461Z,24.47
2019-02-14T15:06:07.888Z,23.27
2019-02-14T15:08:37.110Z,17.97
2019-02-14T15:11:06.602Z,18.70
2019-02-14T15:13:35.757Z,27.60
2019-02-14T15:16:05.006Z,77.67
2019-02-14T15:18:34.257Z,53.30
2019-02-14T15:21:03.423Z,111.77
2019-02-14T15:23:32.591Z,100.40
2019-02-14T15:26:01.932Z,37.67
2019-02-14T15:28:31.086Z,30.23
2019-02-14T15:31:00.415Z,55.87
2019-02-14T15:33:29.664Z,104.73
2019-02-14T15:35:59.206Z,29.23
2019-02-14T15:38:28.643Z,34.47
2019-02-14T15:40:58.316Z,26.30
2019-02-14T15:43:27.556Z,35.27
2019-02-14T15:45:57.458Z,50.03
2019-02-14T15:48:26.749Z,26.25
2019-02-14T15:50:56.699Z,31.20
2019-02-14T15:53:26.384Z,32.28
2019-02-14T15:55:55.920Z,32.95
2019-02-14T15:58:25.409Z,33.23
2019-02-14T16:00:54.740Z,32.08
2019-02-14T16:03:24.417Z,34.83
2019-02-14T16:05:53.881Z,67.33
2019-02-14T16:08:23.919Z,87.97
2019-02-14T16:10:55.741Z,48.17
2019-02-14T16:13:24.196Z,51.10
2019-02-14T16:15:53.839Z,88.27
2019-02-14T16:18:25.301Z,37.93
2019-02-14T16:20:54.676Z,86.13
2019-02-14T16:23:23.893Z,68.50
2019-02-14T16:25:54.024Z,35.13
2019-02-14T16:28:23.821Z,89.37
2019-02-14T16:30:56.318Z,69.87
2019-02-14T16:33:24.148Z,59.13
2019-02-14T16:35:53.570Z,30.80
2019-02-14T16:38:22.861Z,55.30
2019-02-14T16:40:52.441Z,97.00
2019-02-14T16:43:22.183Z,107.93
2019-02-14T16:45:51.670Z,100.40
2019-02-14T16:48:20.895Z,69.27
2019-02-14T16:50:50.121Z,57.57
2019-02-14T16:53:19.733Z,163.00
2019-02-14T16:55:48.966Z,121.53
2019-02-14T16:58:18.157Z,116.40
2019-02-14T17:00:47.394Z,71.27
2019-02-14T17:03:16.611Z,105.43
2019-02-14T17:05:46.018Z,70.60
2019-02-14T17:08:15.269Z,60.57
2019-02-14T17:10:44.490Z,64.57
2019-02-14T17:13:13.677Z,56.30
2019-02-14T17:15:43.174Z,110.97
2019-02-14T17:18:12.416Z,52.70
2019-02-14T17:20:41.953Z,72.77
2019-02-14T17:23:11.901Z,57.70
2019-02-14T17:25:41.054Z,64.93
2019-02-14T17:28:10.433Z,84.33
2019-02-14T17:30:39.677Z,30.93
2019-02-14T17:33:09.044Z,27.77
2019-02-14T17:35:38.557Z,23.67
2019-02-14T17:38:07.839Z,30.23
2019-02-14T17:40:45.605Z,138.33
2019-02-14T17:43:08.269Z,32.67
2019-02-14T17:45:37.808Z,18.63
2019-02-14T17:48:07.076Z,22.13
2019-02-14T17:50:37.393Z,26.00
2019-02-14T17:53:07.041Z,38.37
2019-02-14T17:55:36.713Z,86.43
2019-02-14T17:58:06.101Z,65.20
2019-02-14T18:00:35.342Z,113.43
2019-02-14T18:03:04.535Z,226.10
2019-02-14T18:05:33.738Z,132.00
2019-02-14T18:08:03.345Z,133.23
2019-02-14T18:10:32.868Z,102.43
2019-02-14T18:13:02.121Z,101.23
2019-02-14T18:15:31.567Z,78.10
2019-02-14T18:18:00.806Z,148.13
2019-02-14T18:20:30.051Z,94.90
2019-02-14T18:22:59.765Z,46.87
2019-02-14T18:25:29.011Z,142.90
2019-02-14T18:27:58.500Z,45.80
2019-02-14T18:30:28.007Z,32.70
2019-02-14T18:32:57.261Z,31.50
2019-02-14T18:35:26.746Z,37.63
2019-02-14T18:37:56.019Z,50.60
2019-02-14T18:40:25.509Z,64.00
2019-02-14T18:42:55.594Z,68.43
2019-02-14T18:45:26.006Z,45.50
2019-02-14T18:47:55.373Z,60.77
2019-02-14T18:50:24.579Z,34.93
2019-02-14T18:52:53.974Z,33.27
2019-02-14T18:55:23.313Z,26.27
2019-02-14T18:57:52.562Z,26.53
2019-02-14T19:00:21.931Z,25.00
2019-02-14T19:02:51.582Z,42.37
2019-02-14T19:05:20.837Z,119.97
2019-02-14T19:07:50.222Z,87.37
2019-02-14T19:10:19.847Z,52.27
2019-02-14T19:12:49.430Z,64.07
2019-02-14T19:15:19.882Z,140.97
2019-02-14T19:17:50.075Z,104.30
2019-02-14T19:20:19.373Z,123.57
2019-02-14T19:22:48.837Z,153.13
2019-02-14T19:25:18.016Z,62.27
2019-02-14T19:27:47.583Z,30.97
2019-02-14T19:30:17.805Z,35.20
2019-02-14T19:32:47.963Z,39.37
2019-02-14T19:35:23.018Z,63.43
2019-02-14T19:37:48.137Z,78.70
2019-02-14T19:40:17.568Z,40.83
2019-02-14T19:42:46.938Z,31.83
2019-02-14T19:45:16.567Z,25.63
2019-02-14T19:47:47.135Z,28.57
2019-02-14T19:50:18.289Z,31.17
2019-02-14T19:52:47.883Z,26.63
2019-02-14T19:55:17.548Z,33.97
2019-02-14T19:57:47.326Z,29.53
2019-02-14T20:00:17.187Z,30.43
2019-02-14T20:02:46.627Z,32.47
2019-02-14T20:05:15.920Z,33.27
2019-02-14T20:07:45.436Z,28.67
2019-02-14T20:10:15.536Z,28.30
2019-02-14T20:12:44.905Z,33.83
2019-02-14T20:15:15.017Z,31.70
2019-02-14T20:17:44.504Z,28.03
2019-02-14T20:20:13.832Z,33.77
2019-02-14T20:22:43.332Z,27.73
2019-02-14T20:25:13.714Z,24.27
2019-02-14T20:27:43.308Z,26.80
2019-02-14T20:30:13.371Z,43.63
2019-02-14T20:32:43.451Z,40.73
2019-02-14T20:35:12.827Z,31.57
2019-02-14T20:37:42.265Z,29.60
2019-02-14T20:40:11.653Z,28.53
2019-02-14T20:42:40.851Z,26.53
2019-02-14T20:45:10.923Z,27.67
2019-02-14T20:47:41.446Z,27.33
2019-02-14T20:50:12.843Z,28.03
2019-02-14T20:52:42.727Z,26.70
2019-02-14T20:55:13.741Z,29.70
2019-02-14T20:57:42.902Z,29.80
2019-02-14T21:00:22.223Z,29.23
2019-02-14T21:02:51.565Z,31.33
2019-02-14T21:05:20.800Z,29.83
2019-02-14T21:07:50.718Z,26.80
2019-02-14T21:10:19.919Z,29.97
2019-02-14T21:12:49.595Z,27.17
2019-02-14T21:15:27.139Z,25.40
2019-02-14T21:17:57.629Z,30.87
2019-02-14T21:20:27.398Z,25.77
2019-02-14T21:22:57.107Z,25.00
2019-02-14T21:25:27.314Z,28.73
2019-02-14T21:27:57.394Z,30.33
2019-02-14T21:30:27.871Z,30.03
2019-02-14T21:32:58.070Z,36.17
2019-02-14T21:35:27.354Z,27.27
2019-02-14T21:37:58.392Z,22.60
2019-02-14T21:40:28.076Z,27.43
2019-02-14T21:42:58.123Z,29.67
2019-02-14T21:45:27.439Z,26.13
2019-02-14T21:47:56.861Z,23.63
2019-02-14T21:50:26.447Z,23.67
2019-02-14T21:52:57.327Z,24.37
2019-02-14T21:55:27.752Z,24.73
2019-02-14T21:57:58.333Z,25.00
2019-02-14T22:00:28.268Z,24.07
2019-02-14T22:02:58.190Z,25.70
2019-02-14T22:05:27.816Z,26.13
2019-02-14T22:07:58.045Z,23.37
2019-02-14T22:10:28.119Z,25.60
2019-02-14T22:12:57.998Z,22.20
2019-02-14T22:15:28.202Z,24.90
2019-02-14T22:17:58.667Z,26.37
2019-02-14T22:20:29.386Z,22.17
2019-02-14T22:22:59.790Z,22.03
2019-02-14T22:25:29.828Z,20.03
2019-02-14T22:27:59.277Z,18.57
2019-02-14T22:30:28.747Z,19.37
2019-02-14T22:32:58.318Z,21.80
2019-02-14T22:35:27.718Z,19.37
2019-02-14T22:37:57.132Z,19.80
2019-02-14T22:40:28.001Z,20.83
2019-02-14T22:42:57.344Z,20.90
2019-02-14T22:45:27.336Z,20.90
2019-02-14T22:47:56.808Z,22.33
2019-02-14T22:50:26.150Z,22.77
2019-02-14T22:52:56.575Z,22.03
2019-02-14T22:55:25.812Z,22.50
2019-02-14T22:57:55.391Z,21.70
2019-02-14T23:00:34.792Z,20.63
2019-02-14T23:03:04.395Z,19.33
2019-02-14T23:05:33.557Z,21.90
2019-02-14T23:08:02.849Z,22.53
2019-02-14T23:10:32.129Z,22.13
2019-02-14T23:13:01.704Z,21.57
2019-02-14T23:15:31.017Z,23.10
2019-02-14T23:18:00.214Z,23.10
2019-02-14T23:20:29.437Z,21.40
2019-02-14T23:22:58.689Z,22.43
2019-02-14T23:25:27.887Z,46.47
2019-02-14T23:27:57.243Z,36.57
2019-02-14T23:30:26.404Z,46.27
2019-02-14T23:32:55.897Z,52.33
2019-02-14T23:35:25.219Z,67.53
2019-02-14T23:37:54.542Z,29.47
2019-02-14T23:40:23.677Z,25.20
2019-02-14T23:42:52.863Z,25.70
2019-02-14T23:45:22.294Z,29.80
2019-02-14T23:47:51.505Z,22.40
2019-02-14T23:50:20.919Z,21.23
2019-02-14T23:52:50.059Z,19.57
2019-02-14T23:55:19.309Z,19.33
2019-02-14T23:57:48.448Z,26.87
